Archival Weather

Chicago O'Hare International

Chicago, Illinois (KORD)

Report from: Tuesday, December 6, 2022 5:51 AM CST
Current time: Saturday, February 4, 2023 10:40 PM CST

Current weather
Weather history
Weather forecast

Temperature2.8°C (37.0°F)
Wind chill0.7°C (33.3°F)
Dew point-0.6°C (30.9°F)
Winds 4 kts (2.1 m/s, 4.6 mph) North-Northeast (20°)
Visibility10 mi. (16.1 km)
Clouds Ceiling: Broken clouds 3,700 ft. (1,128 m)
Overcast 11,000 ft. (3,353 m)
Altimeter29.97 in.Hg (1015 mB)
Relative humidity78 %
Density altitude-1,449 ft. (-442 m)
Sea-level pressure101.5 kPa (1015 mB, 29.98 in.Hg)
Max temp last 6 hours4.4°C (39.9°F)
Min temp last 6 hours2.2°C (36.0°F)
Remarks Automated weather observing station with precipitation discriminator
Pressure rising more quickly
Flight conditions Visual Meteorological Conditions
Raw dataKORD 061151Z 02004KT 10SM BKN037 OVC110 03/M01 A2997 RMK AO2 SLP152 T00281006 10044 20022 53004
An unhandled exception has occurred. See browser dev tools for details. Reload 🗙